sensor_id;sensor_type;location;lat;lon;timestamp;pressure;altitude;pressure_sealevel;temperature;humidity
46347;BME280;32057;47.830;19.046;2023-04-07T00:01:01;100003.81;;;2.86;100.00
46347;BME280;32057;47.830;19.046;2023-04-07T00:03:26;99990.63;;;2.78;100.00
46347;BME280;32057;47.830;19.046;2023-04-07T00:05:52;100000.22;;;2.82;100.00
46347;BME280;32057;47.830;19.046;2023-04-07T00:08:17;99996.84;;;2.83;100.00
46347;BME280;32057;47.830;19.046;2023-04-07T00:10:43;100003.69;;;2.83;100.00
46347;BME280;32057;47.830;19.046;2023-04-07T00:13:08;99996.47;;;2.75;100.00
46347;BME280;32057;47.830;19.046;2023-04-07T00:15:33;99998.84;;;2.71;100.00
46347;BME280;32057;47.830;19.046;2023-04-07T00:17:59;99991.56;;;2.80;100.00
46347;BME280;32057;47.830;19.046;2023-04-07T00:20:24;99988.53;;;2.89;100.00
46347;BME280;32057;47.830;19.046;2023-04-07T00:22:50;99985.25;;;2.73;100.00
46347;BME280;32057;47.830;19.046;2023-04-07T00:25:15;99986.50;;;2.82;100.00
46347;BME280;32057;47.830;19.046;2023-04-07T00:27:41;99983.94;;;2.82;100.00
46347;BME280;32057;47.830;19.046;2023-04-07T00:30:06;99986.16;;;2.93;100.00
46347;BME280;32057;47.830;19.046;2023-04-07T00:32:32;99981.28;;;2.99;100.00
46347;BME280;32057;47.830;19.046;2023-04-07T00:34:57;99978.44;;;2.93;100.00
46347;BME280;32057;47.830;19.046;2023-04-07T00:37:23;99977.09;;;2.82;100.00
46347;BME280;32057;47.830;19.046;2023-04-07T00:39:50;99976.84;;;2.76;100.00
46347;BME280;32057;47.830;19.046;2023-04-07T00:42:16;99980.34;;;2.78;100.00
46347;BME280;32057;47.830;19.046;2023-04-07T00:44:42;99981.50;;;2.85;100.00
46347;BME280;32057;47.830;19.046;2023-04-07T00:47:07;99973.03;;;2.87;100.00
46347;BME280;32057;47.830;19.046;2023-04-07T00:49:33;99977.78;;;2.78;100.00
46347;BME280;32057;47.830;19.046;2023-04-07T00:51:58;99969.69;;;2.88;100.00
46347;BME280;32057;47.830;19.046;2023-04-07T00:54:24;99970.47;;;2.87;100.00
46347;BME280;32057;47.830;19.046;2023-04-07T00:56:49;99966.78;;;3.00;100.00
46347;BME280;32057;47.830;19.046;2023-04-07T00:59:16;99962.94;;;3.10;100.00
46347;BME280;32057;47.830;19.046;2023-04-07T01:01:52;99952.16;;;3.18;100.00
46347;BME280;32057;47.830;19.046;2023-04-07T01:04:26;99962.97;;;3.11;100.00
46347;BME280;32057;47.830;19.046;2023-04-07T01:07:03;99964.56;;;3.08;100.00
46347;BME280;32057;47.830;19.046;2023-04-07T01:09:40;99949.50;;;3.17;100.00
46347;BME280;32057;47.830;19.046;2023-04-07T01:14:58;99945.88;;;3.12;100.00
46347;BME280;32057;47.830;19.046;2023-04-07T01:17:25;99949.03;;;2.87;100.00
46347;BME280;32057;47.830;19.046;2023-04-07T01:19:58;99955.19;;;2.90;100.00
46347;BME280;32057;47.830;19.046;2023-04-07T01:22:40;99950.75;;;2.86;100.00
46347;BME280;32057;47.830;19.046;2023-04-07T01:30:34;99947.75;;;2.96;100.00
46347;BME280;32057;47.830;19.046;2023-04-07T01:33:01;99948.09;;;3.04;100.00
46347;BME280;32057;47.830;19.046;2023-04-07T01:35:29;99957.03;;;3.12;100.00
46347;BME280;32057;47.830;19.046;2023-04-07T01:37:56;99943.56;;;2.98;100.00
46347;BME280;32057;47.830;19.046;2023-04-07T01:40:24;99942.38;;;3.10;100.00
46347;BME280;32057;47.830;19.046;2023-04-07T01:42:52;99936.66;;;2.97;100.00
46347;BME280;32057;47.830;19.046;2023-04-07T01:45:19;99936.81;;;3.01;100.00
46347;BME280;32057;47.830;19.046;2023-04-07T01:47:45;99937.22;;;3.10;100.00
46347;BME280;32057;47.830;19.046;2023-04-07T01:50:11;99936.19;;;3.06;100.00
46347;BME280;32057;47.830;19.046;2023-04-07T01:52:38;99936.31;;;3.09;100.00
46347;BME280;32057;47.830;19.046;2023-04-07T01:55:05;99935.53;;;3.10;100.00
46347;BME280;32057;47.830;19.046;2023-04-07T01:57:31;99929.44;;;3.08;100.00
46347;BME280;32057;47.830;19.046;2023-04-07T01:59:57;99947.09;;;3.01;100.00
46347;BME280;32057;47.830;19.046;2023-04-07T02:02:22;99937.94;;;3.07;100.00
46347;BME280;32057;47.830;19.046;2023-04-07T02:04:59;99937.06;;;3.07;100.00
46347;BME280;32057;47.830;19.046;2023-04-07T02:07:43;99943.91;;;3.06;100.00
46347;BME280;32057;47.830;19.046;2023-04-07T02:10:12;99941.06;;;3.00;100.00
46347;BME280;32057;47.830;19.046;2023-04-07T02:12:39;99936.00;;;2.82;100.00
46347;BME280;32057;47.830;19.046;2023-04-07T02:15:07;99941.53;;;2.72;100.00
46347;BME280;32057;47.830;19.046;2023-04-07T02:17:35;99940.84;;;2.76;100.00
46347;BME280;32057;47.830;19.046;2023-04-07T02:20:02;99937.28;;;2.92;100.00
46347;BME280;32057;47.830;19.046;2023-04-07T02:22:29;99931.00;;;3.05;100.00
46347;BME280;32057;47.830;19.046;2023-04-07T02:24:56;99933.03;;;3.12;100.00
46347;BME280;32057;47.830;19.046;2023-04-07T02:27:21;99930.47;;;3.12;100.00
46347;BME280;32057;47.830;19.046;2023-04-07T02:29:46;99926.38;;;3.17;100.00
46347;BME280;32057;47.830;19.046;2023-04-07T02:32:12;99920.44;;;3.18;100.00
46347;BME280;32057;47.830;19.046;2023-04-07T02:34:37;99929.88;;;3.19;100.00
46347;BME280;32057;47.830;19.046;2023-04-07T02:37:02;99926.38;;;2.97;100.00
46347;BME280;32057;47.830;19.046;2023-04-07T02:39:28;99923.75;;;2.96;100.00
46347;BME280;32057;47.830;19.046;2023-04-07T02:41:53;99931.06;;;3.06;100.00
46347;BME280;32057;47.830;19.046;2023-04-07T02:44:19;99927.94;;;3.13;100.00
46347;BME280;32057;47.830;19.046;2023-04-07T02:46:44;99932.47;;;3.19;100.00
46347;BME280;32057;47.830;19.046;2023-04-07T02:49:10;99924.75;;;3.19;100.00
46347;BME280;32057;47.830;19.046;2023-04-07T02:51:35;99929.97;;;3.21;100.00
46347;BME280;32057;47.830;19.046;2023-04-07T02:54:00;99928.59;;;3.29;100.00
46347;BME280;32057;47.830;19.046;2023-04-07T02:56:26;99927.81;;;3.30;100.00
46347;BME280;32057;47.830;19.046;2023-04-07T02:58:51;99927.84;;;3.31;100.00
46347;BME280;32057;47.830;19.046;2023-04-07T03:01:17;99924.59;;;3.35;100.00
46347;BME280;32057;47.830;19.046;2023-04-07T03:03:42;99926.28;;;3.35;100.00
46347;BME280;32057;47.830;19.046;2023-04-07T03:06:09;99925.50;;;3.36;100.00
46347;BME280;32057;47.830;19.046;2023-04-07T03:08:34;99932.03;;;3.29;100.00
46347;BME280;32057;47.830;19.046;2023-04-07T03:11:00;99927.47;;;3.22;100.00
46347;BME280;32057;47.830;19.046;2023-04-07T03:13:25;99929.63;;;3.13;100.00
46347;BME280;32057;47.830;19.046;2023-04-07T03:15:51;99932.94;;;3.10;100.00
46347;BME280;32057;47.830;19.046;2023-04-07T03:18:17;99935.72;;;3.15;100.00
46347;BME280;32057;47.830;19.046;2023-04-07T03:20:42;99938.34;;;3.16;100.00
46347;BME280;32057;47.830;19.046;2023-04-07T03:23:08;99935.28;;;3.25;100.00
46347;BME280;32057;47.830;19.046;2023-04-07T03:25:34;99939.91;;;3.32;100.00
46347;BME280;32057;47.830;19.046;2023-04-07T03:27:59;99938.38;;;3.37;100.00
46347;BME280;32057;47.830;19.046;2023-04-07T03:30:25;99941.78;;;3.36;100.00
46347;BME280;32057;47.830;19.046;2023-04-07T03:32:51;99943.50;;;3.36;100.00
46347;BME280;32057;47.830;19.046;2023-04-07T03:35:17;99941.94;;;3.39;100.00
46347;BME280;32057;47.830;19.046;2023-04-07T03:37:42;99931.66;;;3.39;100.00
46347;BME280;32057;47.830;19.046;2023-04-07T03:40:08;99929.88;;;3.38;100.00
46347;BME280;32057;47.830;19.046;2023-04-07T03:42:33;99930.88;;;3.42;100.00
46347;BME280;32057;47.830;19.046;2023-04-07T03:44:58;99936.16;;;3.45;100.00
46347;BME280;32057;47.830;19.046;2023-04-07T03:47:24;99934.47;;;3.46;100.00
46347;BME280;32057;47.830;19.046;2023-04-07T03:49:49;99939.75;;;3.29;100.00
46347;BME280;32057;47.830;19.046;2023-04-07T03:52:15;99938.28;;;3.34;100.00
46347;BME280;32057;47.830;19.046;2023-04-07T03:54:40;99938.28;;;3.34;100.00
46347;BME280;32057;47.830;19.046;2023-04-07T03:57:06;99940.97;;;3.37;100.00
46347;BME280;32057;47.830;19.046;2023-04-07T03:59:32;99942.59;;;3.35;100.00
46347;BME280;32057;47.830;19.046;2023-04-07T04:01:57;99945.16;;;3.35;100.00
46347;BME280;32057;47.830;19.046;2023-04-07T04:04:23;99942.63;;;3.16;100.00
46347;BME280;32057;47.830;19.046;2023-04-07T04:06:51;99944.19;;;3.12;100.00
46347;BME280;32057;47.830;19.046;2023-04-07T04:09:17;99945.31;;;3.19;100.00
46347;BME280;32057;47.830;19.046;2023-04-07T04:11:42;99946.53;;;3.27;100.00
46347;BME280;32057;47.830;19.046;2023-04-07T04:14:07;99948.56;;;3.34;100.00
46347;BME280;32057;47.830;19.046;2023-04-07T04:16:33;99962.09;;;3.30;100.00
46347;BME280;32057;47.830;19.046;2023-04-07T04:19:00;99967.25;;;3.30;100.00
46347;BME280;32057;47.830;19.046;2023-04-07T04:21:25;99964.84;;;3.35;100.00
46347;BME280;32057;47.830;19.046;2023-04-07T04:23:51;99972.56;;;3.35;100.00
46347;BME280;32057;47.830;19.046;2023-04-07T04:26:17;99972.91;;;3.43;100.00
46347;BME280;32057;47.830;19.046;2023-04-07T04:28:42;99968.03;;;3.49;100.00
46347;BME280;32057;47.830;19.046;2023-04-07T04:31:08;99975.06;;;3.53;100.00
46347;BME280;32057;47.830;19.046;2023-04-07T04:33:33;99964.00;;;3.55;100.00
46347;BME280;32057;47.830;19.046;2023-04-07T04:35:59;99961.66;;;3.60;100.00
46347;BME280;32057;47.830;19.046;2023-04-07T04:38:24;99958.94;;;3.57;100.00
46347;BME280;32057;47.830;19.046;2023-04-07T04:40:50;99966.81;;;3.60;100.00
46347;BME280;32057;47.830;19.046;2023-04-07T04:43:15;99982.25;;;3.60;100.00
46347;BME280;32057;47.830;19.046;2023-04-07T04:45:41;99982.25;;;3.60;100.00
46347;BME280;32057;47.830;19.046;2023-04-07T04:48:06;99973.69;;;3.61;100.00
46347;BME280;32057;47.830;19.046;2023-04-07T04:50:32;99975.47;;;3.62;100.00
46347;BME280;32057;47.830;19.046;2023-04-07T04:52:57;99975.56;;;3.65;100.00
46347;BME280;32057;47.830;19.046;2023-04-07T04:55:22;99988.50;;;3.67;100.00
46347;BME280;32057;47.830;19.046;2023-04-07T04:57:48;99986.28;;;3.55;100.00
46347;BME280;32057;47.830;19.046;2023-04-07T05:00:13;99985.56;;;3.57;100.00
46347;BME280;32057;47.830;19.046;2023-04-07T05:02:39;99990.91;;;3.62;100.00
46347;BME280;32057;47.830;19.046;2023-04-07T05:05:06;99985.00;;;3.65;100.00
46347;BME280;32057;47.830;19.046;2023-04-07T05:07:32;99984.38;;;3.70;100.00
46347;BME280;32057;47.830;19.046;2023-04-07T05:09:57;99990.47;;;3.72;100.00
46347;BME280;32057;47.830;19.046;2023-04-07T05:12:22;99991.28;;;3.71;100.00
46347;BME280;32057;47.830;19.046;2023-04-07T05:14:48;99994.78;;;3.73;100.00
46347;BME280;32057;47.830;19.046;2023-04-07T05:17:13;99995.69;;;3.74;100.00
46347;BME280;32057;47.830;19.046;2023-04-07T05:19:39;100001.84;;;3.77;100.00
46347;BME280;32057;47.830;19.046;2023-04-07T05:22:04;100002.84;;;3.81;100.00
46347;BME280;32057;47.830;19.046;2023-04-07T05:24:30;100003.75;;;3.82;100.00
46347;BME280;32057;47.830;19.046;2023-04-07T05:26:55;100005.41;;;3.81;100.00
46347;BME280;32057;47.830;19.046;2023-04-07T05:29:21;100005.47;;;3.83;100.00
46347;BME280;32057;47.830;19.046;2023-04-07T05:31:47;100008.19;;;3.86;100.00
46347;BME280;32057;47.830;19.046;2023-04-07T05:34:12;100006.56;;;3.88;100.00
46347;BME280;32057;47.830;19.046;2023-04-07T05:36:38;100008.75;;;3.78;100.00
46347;BME280;32057;47.830;19.046;2023-04-07T05:39:03;100015.53;;;3.76;100.00
46347;BME280;32057;47.830;19.046;2023-04-07T05:41:29;100009.16;;;3.68;100.00
46347;BME280;32057;47.830;19.046;2023-04-07T05:43:54;100002.66;;;3.76;100.00
46347;BME280;32057;47.830;19.046;2023-04-07T05:46:20;100004.22;;;3.73;100.00
46347;BME280;32057;47.830;19.046;2023-04-07T05:48:45;100004.34;;;3.76;100.00
46347;BME280;32057;47.830;19.046;2023-04-07T05:51:11;99997.38;;;3.73;100.00
46347;BME280;32057;47.830;19.046;2023-04-07T05:53:36;100007.63;;;3.72;100.00
46347;BME280;32057;47.830;19.046;2023-04-07T05:56:01;100005.22;;;3.76;100.00
46347;BME280;32057;47.830;19.046;2023-04-07T05:58:27;100006.16;;;3.78;100.00
46347;BME280;32057;47.830;19.046;2023-04-07T06:00:52;100005.47;;;3.83;100.00
46347;BME280;32057;47.830;19.046;2023-04-07T06:03:18;100011.50;;;3.83;100.00
46347;BME280;32057;47.830;19.046;2023-04-07T06:05:46;100006.16;;;3.78;100.00
46347;BME280;32057;47.830;19.046;2023-04-07T06:08:12;100014.84;;;3.81;100.00
46347;BME280;32057;47.830;19.046;2023-04-07T06:10:37;100017.69;;;3.67;100.00
46347;BME280;32057;47.830;19.046;2023-04-07T06:13:04;100023.06;;;3.72;100.00
46347;BME280;32057;47.830;19.046;2023-04-07T06:15:29;100025.00;;;3.77;100.00
46347;BME280;32057;47.830;19.046;2023-04-07T06:17:54;100023.16;;;3.75;100.00
46347;BME280;32057;47.830;19.046;2023-04-07T06:20:20;100030.16;;;3.77;100.00
46347;BME280;32057;47.830;19.046;2023-04-07T06:22:47;100030.28;;;3.81;100.00
46347;BME280;32057;47.830;19.046;2023-04-07T06:25:12;100029.34;;;3.78;100.00
46347;BME280;32057;47.830;19.046;2023-04-07T06:27:38;100025.28;;;3.84;100.00
46347;BME280;32057;47.830;19.046;2023-04-07T06:30:03;100025.97;;;3.79;100.00
46347;BME280;32057;47.830;19.046;2023-04-07T06:32:29;100033.00;;;3.84;100.00
46347;BME280;32057;47.830;19.046;2023-04-07T06:34:55;100032.41;;;3.91;100.00
46347;BME280;32057;47.830;19.046;2023-04-07T06:37:21;100034.44;;;3.98;100.00
46347;BME280;32057;47.830;19.046;2023-04-07T06:39:49;100033.63;;;3.99;100.00
46347;BME280;32057;47.830;19.046;2023-04-07T06:42:14;100040.47;;;3.98;100.00
46347;BME280;32057;47.830;19.046;2023-04-07T06:44:40;100033.88;;;4.05;100.00
46347;BME280;32057;47.830;19.046;2023-04-07T06:47:05;100041.59;;;4.05;100.00
46347;BME280;32057;47.830;19.046;2023-04-07T06:49:31;100040.63;;;4.02;100.00
46347;BME280;32057;47.830;19.046;2023-04-07T06:51:56;100044.13;;;4.04;100.00
46347;BME280;32057;47.830;19.046;2023-04-07T06:54:22;100046.63;;;4.02;100.00
46347;BME280;32057;47.830;19.046;2023-04-07T06:56:47;100052.53;;;3.99;100.00
46347;BME280;32057;47.830;19.046;2023-04-07T06:59:13;100049.97;;;3.99;100.00
46347;BME280;32057;47.830;19.046;2023-04-07T07:01:38;100051.09;;;4.06;100.00
46347;BME280;32057;47.830;19.046;2023-04-07T07:04:04;100051.19;;;4.09;100.00
46347;BME280;32057;47.830;19.046;2023-04-07T07:06:32;100054.31;;;4.22;100.00
46347;BME280;32057;47.830;19.046;2023-04-07T07:08:57;100055.44;;;4.28;100.00
46347;BME280;32057;47.830;19.046;2023-04-07T07:11:23;100063.56;;;4.37;100.00
46347;BME280;32057;47.830;19.046;2023-04-07T07:13:49;100061.78;;;4.36;100.00
46347;BME280;32057;47.830;19.046;2023-04-07T07:16:14;100064.53;;;4.41;100.00
46347;BME280;32057;47.830;19.046;2023-04-07T07:18:40;100069.75;;;4.43;100.00
46347;BME280;32057;47.830;19.046;2023-04-07T07:21:05;100071.00;;;4.52;100.00
46347;BME280;32057;47.830;19.046;2023-04-07T07:23:30;100073.59;;;4.52;100.00
46347;BME280;32057;47.830;19.046;2023-04-07T07:25:56;100066.78;;;4.54;100.00
46347;BME280;32057;47.830;19.046;2023-04-07T07:28:22;100077.25;;;4.57;100.00
46347;BME280;32057;47.830;19.046;2023-04-07T07:30:48;100076.78;;;4.47;100.00
46347;BME280;32057;47.830;19.046;2023-04-07T07:33:13;100081.38;;;4.54;100.00
46347;BME280;32057;47.830;19.046;2023-04-07T07:35:38;100077.97;;;4.55;100.00
46347;BME280;32057;47.830;19.046;2023-04-07T07:38:04;100080.88;;;4.63;100.00
46347;BME280;32057;47.830;19.046;2023-04-07T07:40:30;100085.91;;;4.59;100.00
46347;BME280;32057;47.830;19.046;2023-04-07T07:42:56;100083.44;;;4.63;100.00
46347;BME280;32057;47.830;19.046;2023-04-07T07:45:22;100093.13;;;4.68;100.00
46347;BME280;32057;47.830;19.046;2023-04-07T07:47:49;100094.13;;;4.72;100.00
46347;BME280;32057;47.830;19.046;2023-04-07T07:50:14;100094.81;;;4.68;100.00
46347;BME280;32057;47.830;19.046;2023-04-07T07:52:40;100096.81;;;4.75;100.00
46347;BME280;32057;47.830;19.046;2023-04-07T07:55:06;100098.66;;;4.77;100.00
46347;BME280;32057;47.830;19.046;2023-04-07T07:57:31;100097.97;;;4.82;100.00
46347;BME280;32057;47.830;19.046;2023-04-07T07:59:57;100106.56;;;4.82;100.00
46347;BME280;32057;47.830;19.046;2023-04-07T08:02:22;100112.53;;;4.81;100.00
46347;BME280;32057;47.830;19.046;2023-04-07T08:04:53;100106.66;;;4.85;100.00
46347;BME280;32057;47.830;19.046;2023-04-07T08:07:19;100104.69;;;4.78;100.00
46347;BME280;32057;47.830;19.046;2023-04-07T08:09:44;100115.78;;;4.77;100.00
46347;BME280;32057;47.830;19.046;2023-04-07T08:12:10;100112.66;;;4.63;100.00
46347;BME280;32057;47.830;19.046;2023-04-07T08:14:35;100113.66;;;4.67;100.00
46347;BME280;32057;47.830;19.046;2023-04-07T08:17:00;100120.59;;;4.68;100.00
46347;BME280;32057;47.830;19.046;2023-04-07T08:19:26;100127.13;;;4.59;100.00
46347;BME280;32057;47.830;19.046;2023-04-07T08:21:51;100119.53;;;4.63;100.00
46347;BME280;32057;47.830;19.046;2023-04-07T08:24:17;100115.56;;;4.71;100.00
46347;BME280;32057;47.830;19.046;2023-04-07T08:26:43;100125.75;;;4.68;100.00
46347;BME280;32057;47.830;19.046;2023-04-07T08:29:09;100122.47;;;4.72;100.00
46347;BME280;32057;47.830;19.046;2023-04-07T08:31:35;100116.50;;;4.73;100.00
46347;BME280;32057;47.830;19.046;2023-04-07T08:34:00;100120.16;;;4.78;100.00
46347;BME280;32057;47.830;19.046;2023-04-07T08:36:26;100122.09;;;4.84;100.00
46347;BME280;32057;47.830;19.046;2023-04-07T08:38:53;100126.34;;;4.83;100.00
46347;BME280;32057;47.830;19.046;2023-04-07T08:41:40;100124.72;;;4.85;100.00
46347;BME280;32057;47.830;19.046;2023-04-07T08:44:07;100126.50;;;4.86;100.00
46347;BME280;32057;47.830;19.046;2023-04-07T08:46:33;100124.84;;;4.88;100.00
46347;BME280;32057;47.830;19.046;2023-04-07T08:49:00;100123.53;;;4.98;100.00
46347;BME280;32057;47.830;19.046;2023-04-07T08:51:29;100130.25;;;4.94;100.00
46347;BME280;32057;47.830;19.046;2023-04-07T08:54:16;100132.25;;;5.02;100.00
46347;BME280;32057;47.830;19.046;2023-04-07T08:56:46;100129.91;;;5.08;100.00
46347;BME280;32057;47.830;19.046;2023-04-07T08:59:15;100123.28;;;5.14;100.00
46347;BME280;32057;47.830;19.046;2023-04-07T09:01:42;100129.44;;;5.18;100.00
46347;BME280;32057;47.830;19.046;2023-04-07T09:04:09;100125.53;;;5.28;100.00
46347;BME280;32057;47.830;19.046;2023-04-07T09:06:35;100126.34;;;5.27;100.00
46347;BME280;32057;47.830;19.046;2023-04-07T09:09:02;100117.88;;;5.31;100.00
46347;BME280;32057;47.830;19.046;2023-04-07T09:11:34;100119.72;;;5.33;100.00
46347;BME280;32057;47.830;19.046;2023-04-07T09:14:00;100127.81;;;5.43;100.00
46347;BME280;32057;47.830;19.046;2023-04-07T09:16:27;100125.34;;;5.46;100.00
46347;BME280;32057;47.830;19.046;2023-04-07T09:18:53;100121.84;;;5.44;100.00
46347;BME280;32057;47.830;19.046;2023-04-07T09:21:19;100127.09;;;5.47;100.00
46347;BME280;32057;47.830;19.046;2023-04-07T09:23:46;100125.22;;;5.43;100.00
46347;BME280;32057;47.830;19.046;2023-04-07T09:26:19;100122.16;;;5.53;100.00
46347;BME280;32057;47.830;19.046;2023-04-07T09:28:48;100121.41;;;5.55;100.00
46347;BME280;32057;47.830;19.046;2023-04-07T09:31:15;100132.97;;;5.65;100.00
46347;BME280;32057;47.830;19.046;2023-04-07T09:33:41;100129.63;;;5.45;100.00
46347;BME280;32057;47.830;19.046;2023-04-07T09:36:06;100137.94;;;5.61;100.00
46347;BME280;32057;47.830;19.046;2023-04-07T09:38:36;100133.41;;;5.55;100.00
46347;BME280;32057;47.830;19.046;2023-04-07T09:41:10;100136.41;;;5.66;100.00
46347;BME280;32057;47.830;19.046;2023-04-07T09:43:38;100135.63;;;5.68;100.00
46347;BME280;32057;47.830;19.046;2023-04-07T09:46:14;100129.91;;;5.77;100.00
46347;BME280;32057;47.830;19.046;2023-04-07T09:48:41;100133.72;;;5.87;100.00
46347;BME280;32057;47.830;19.046;2023-04-07T09:51:13;100134.19;;;5.99;100.00
46347;BME280;32057;47.830;19.046;2023-04-07T09:53:46;100130.09;;;5.82;100.00
46347;BME280;32057;47.830;19.046;2023-04-07T09:56:14;100133.91;;;5.91;100.00
46347;BME280;32057;47.830;19.046;2023-04-07T09:58:43;100136.75;;;5.99;100.00
46347;BME280;32057;47.830;19.046;2023-04-07T10:01:09;100134.25;;;6.01;100.00
46347;BME280;32057;47.830;19.046;2023-04-07T10:03:36;100139.47;;;6.02;100.00
46347;BME280;32057;47.830;19.046;2023-04-07T10:06:02;100129.47;;;6.11;100.00
46347;BME280;32057;47.830;19.046;2023-04-07T10:08:30;100134.94;;;6.21;100.00
46347;BME280;32057;47.830;19.046;2023-04-07T10:10:57;100135.00;;;6.22;100.00
46347;BME280;32057;47.830;19.046;2023-04-07T10:13:25;100135.72;;;6.18;100.00
46347;BME280;32057;47.830;19.046;2023-04-07T10:15:51;100133.34;;;6.24;100.00
46347;BME280;32057;47.830;19.046;2023-04-07T10:18:18;100128.03;;;6.20;100.00
46347;BME280;32057;47.830;19.046;2023-04-07T10:20:47;100129.97;;;6.27;100.00
46347;BME280;32057;47.830;19.046;2023-04-07T10:23:21;100128.44;;;6.32;100.00
46347;BME280;32057;47.830;19.046;2023-04-07T10:25:50;100134.59;;;6.35;100.00
46347;BME280;32057;47.830;19.046;2023-04-07T10:28:19;100126.78;;;6.34;100.00
46347;BME280;32057;47.830;19.046;2023-04-07T10:30:47;100132.06;;;6.37;99.50
46347;BME280;32057;47.830;19.046;2023-04-07T10:33:13;100131.31;;;6.40;99.82
46347;BME280;32057;47.830;19.046;2023-04-07T10:36:04;100128.84;;;6.44;100.00
46347;BME280;32057;47.830;19.046;2023-04-07T10:38:30;100135.47;;;6.36;99.21
46347;BME280;32057;47.830;19.046;2023-04-07T10:40:57;100139.88;;;6.38;99.74
46347;BME280;32057;47.830;19.046;2023-04-07T10:43:39;100138.19;;;6.39;99.25
46347;BME280;32057;47.830;19.046;2023-04-07T10:46:06;100143.56;;;6.45;99.41
46347;BME280;32057;47.830;19.046;2023-04-07T10:48:32;100142.63;;;6.43;99.33
46347;BME280;32057;47.830;19.046;2023-04-07T10:53:30;100145.41;;;6.49;100.00
46347;BME280;32057;47.830;19.046;2023-04-07T10:55:56;100144.28;;;6.41;100.00
46347;BME280;32057;47.830;19.046;2023-04-07T10:58:32;100142.38;;;6.37;100.00
46347;BME280;32057;47.830;19.046;2023-04-07T11:03:23;100143.13;;;6.33;100.00
46347;BME280;32057;47.830;19.046;2023-04-07T11:05:49;100144.09;;;6.36;100.00
46347;BME280;32057;47.830;19.046;2023-04-07T11:08:15;100149.53;;;6.44;100.00
46347;BME280;32057;47.830;19.046;2023-04-07T11:10:56;100154.72;;;6.44;100.00
46347;BME280;32057;47.830;19.046;2023-04-07T11:13:21;100161.44;;;6.39;100.00
46347;BME280;32057;47.830;19.046;2023-04-07T11:15:49;100162.97;;;6.34;100.00
46347;BME280;32057;47.830;19.046;2023-04-07T11:18:18;100156.28;;;6.39;100.00
46347;BME280;32057;47.830;19.046;2023-04-07T11:20:52;100161.25;;;6.34;100.00
46347;BME280;32057;47.830;19.046;2023-04-07T11:23:20;100160.47;;;6.37;100.00
46347;BME280;32057;47.830;19.046;2023-04-07T11:25:47;100160.38;;;6.34;100.00
46347;BME280;32057;47.830;19.046;2023-04-07T11:28:13;100156.94;;;6.33;100.00
46347;BME280;32057;47.830;19.046;2023-04-07T11:30:52;100159.47;;;6.32;100.00
46347;BME280;32057;47.830;19.046;2023-04-07T11:33:24;100162.91;;;6.32;100.00
46347;BME280;32057;47.830;19.046;2023-04-07T11:35:58;100161.19;;;6.33;100.00
46347;BME280;32057;47.830;19.046;2023-04-07T11:38:29;100161.00;;;6.27;100.00
46347;BME280;32057;47.830;19.046;2023-04-07T11:40:55;100158.59;;;6.31;100.00
46347;BME280;32057;47.830;19.046;2023-04-07T11:43:23;100150.78;;;6.30;100.00
46347;BME280;32057;47.830;19.046;2023-04-07T11:46:11;100146.53;;;6.32;100.00
46347;BME280;32057;47.830;19.046;2023-04-07T11:48:38;100157.91;;;6.37;100.00
46347;BME280;32057;47.830;19.046;2023-04-07T11:51:05;100159.66;;;6.38;100.00
46347;BME280;32057;47.830;19.046;2023-04-07T11:53:34;100158.13;;;6.43;100.00
46347;BME280;32057;47.830;19.046;2023-04-07T11:56:05;100158.13;;;6.43;100.00
46347;BME280;32057;47.830;19.046;2023-04-07T11:58:32;100157.28;;;6.44;100.00
46347;BME280;32057;47.830;19.046;2023-04-07T12:00:59;100152.97;;;6.43;100.00
46347;BME280;32057;47.830;19.046;2023-04-07T12:03:29;100158.44;;;6.52;100.00
46347;BME280;32057;47.830;19.046;2023-04-07T12:05:54;100151.50;;;6.51;100.00
46347;BME280;32057;47.830;19.046;2023-04-07T12:08:20;100152.38;;;6.52;100.00
46347;BME280;32057;47.830;19.046;2023-04-07T12:10:46;100153.16;;;6.49;100.00
46347;BME280;32057;47.830;19.046;2023-04-07T12:13:12;100146.09;;;6.44;100.00
46347;BME280;32057;47.830;19.046;2023-04-07T12:15:38;100150.47;;;6.46;100.00
46347;BME280;32057;47.830;19.046;2023-04-07T12:18:03;100148.72;;;6.45;100.00
46347;BME280;32057;47.830;19.046;2023-04-07T12:20:29;100152.84;;;6.40;100.00
46347;BME280;32057;47.830;19.046;2023-04-07T12:22:55;100151.75;;;6.33;100.00
46347;BME280;32057;47.830;19.046;2023-04-07T12:25:20;100152.63;;;6.34;100.00
46347;BME280;32057;47.830;19.046;2023-04-07T12:27:46;100144.75;;;6.31;100.00
46347;BME280;32057;47.830;19.046;2023-04-07T12:30:11;100147.25;;;6.28;99.75
46347;BME280;32057;47.830;19.046;2023-04-07T12:32:37;100149.91;;;6.29;99.63
46347;BME280;32057;47.830;19.046;2023-04-07T12:35:04;100143.94;;;6.32;99.97
46347;BME280;32057;47.830;19.046;2023-04-07T12:37:30;100143.94;;;6.32;100.00
46347;BME280;32057;47.830;19.046;2023-04-07T12:39:56;100147.19;;;6.26;100.00
46347;BME280;32057;47.830;19.046;2023-04-07T12:42:22;100152.63;;;6.34;100.00
46347;BME280;32057;47.830;19.046;2023-04-07T12:44:48;100155.09;;;6.31;100.00
46347;BME280;32057;47.830;19.046;2023-04-07T12:47:13;100152.63;;;6.34;100.00
46347;BME280;32057;47.830;19.046;2023-04-07T12:49:39;100154.38;;;6.35;100.00
46347;BME280;32057;47.830;19.046;2023-04-07T12:52:04;100158.78;;;6.37;100.00
46347;BME280;32057;47.830;19.046;2023-04-07T12:54:31;100166.50;;;6.36;100.00
46347;BME280;32057;47.830;19.046;2023-04-07T12:56:56;100160.34;;;6.32;100.00